• Join FlightAware (Why Join?)
  • Login
  • US Flag GB Flag 
22:04 EST


 

Airport Tracker/Info


-or-


 

Live Flight TrackerFlight Track Log ✈ N629SA ✈ 29-Oct-2013 ✈ KDAB - KAPF

Flight Track Log - Related Links

Times and Time Zones

All times are in EDT time to prevent confusion due to time zone crossing. See the N629SA flight status page for this flight to view local times or setup timezone preferences in your user account.

Time Position Orientation Groundspeed Altitude Reporting Facility
EDT Latitude Longitude Course Direction KTS MPH feet Rate Location/Type
12:47 29.1964 -81.0206 61° Northeast 88 101 1,700  Level Jacksonville Center
12:48 29.1856 -80.9922 114° Southeast 108 124 2,800 900 Climbing Jacksonville Center
12:49 29.1542 -80.9739 153° Southeast 136 157 3,600 900 Climbing Jacksonville Center
12:50 29.1228 -80.9719 177° South 126 145 4,600 780 Climbing Jacksonville Center
12:52 29.0833 -81.0500 240° Southwest 158 182 6,000 420 Climbing Orlando TRACON
12:53 29.0667 -81.1000 249° West 156 180 6,000  Level Orlando TRACON
12:54 29.0500 -81.1500 249° West 159 183 6,000  Level Orlando TRACON
12:55 29.0500 -81.1833 270° West 156 180 6,000  Level Orlando TRACON
12:56 29.0333 -81.2333 249° West 159 183 6,000  Level Orlando TRACON
12:57 29.0167 -81.2667 240° Southwest 153 176 6,000  Level Orlando TRACON
12:58 28.9833 -81.3000 221° Southwest 155 178 6,000  Level Orlando TRACON
12:59 28.9500 -81.3500 233° Southwest 154 177 6,000  Level Orlando TRACON
13:00 28.9167 -81.3833 221° Southwest 153 176 6,000  Level Orlando TRACON
13:01 28.8833 -81.4167 221° Southwest 157 181 6,000  Level Orlando TRACON
13:02 28.8667 -81.4500 240° Southwest 152 175 6,000  Level Orlando TRACON
13:03 28.8333 -81.4833 221° Southwest 156 180 6,000  Level Orlando TRACON
13:04 28.8000 -81.5167 221° Southwest 159 183 6,100  Climbing Orlando TRACON
13:05 28.7500 -81.5333 196° South 152 175 6,000 -60 Descending Orlando TRACON
13:06 28.7167 -81.5333 180° South 152 175 6,000  Level Orlando TRACON
13:07 28.6667 -81.5333 180° South 155 178 6,000  Level Orlando TRACON
13:08 28.6333 -81.5333 180° South 154 177 6,000  Level Orlando TRACON
13:09 28.5833 -81.5333 180° South 151 174 6,000  Level Orlando TRACON
13:10 28.5500 -81.5333 180° South 152 175 6,000  Level Orlando TRACON
13:11 28.5000 -81.5500 196° South 153 176 6,000  Level Orlando TRACON
13:12 28.4667 -81.5667 204° Southwest 154 177 6,000  Level Orlando TRACON
13:13 28.4167 -81.5667 180° South 154 177 6,000  Level Orlando TRACON
13:14 28.3833 -81.5667 180° South 151 174 6,000  Level Orlando TRACON
13:15 28.3333 -81.5667 180° South 152 175 6,000  Level Orlando TRACON
13:16 28.3000 -81.5667 180° South 152 175 6,000  Level Orlando TRACON
13:17 28.2500 -81.5667 180° South 149 171 6,000  Level Orlando TRACON
13:18 28.2167 -81.5667 180° South 153 176 6,000  Level Orlando TRACON
13:19 28.1667 -81.5667 180° South 153 176 6,000  Level Orlando TRACON
13:20 28.1167 -81.5667 180° South 154 177 6,000  Level Orlando TRACON
13:21 28.0961 -81.5683 184° South 158 182 6,000  Level Miami Center
13:22 28.0522 -81.5689 181° South 158 182 6,000  Level Miami Center
13:23 28.0106 -81.5672 178° South 158 182 6,000  Level Miami Center
13:24 27.9669 -81.5653 178° South 158 182 6,000 60 Level Miami Center
13:25 27.9250 -81.5731 189° South 158 182 6,200 420 Climbing Miami Center
13:26 27.8892 -81.5761 184° South 158 182 6,900 420 Climbing Miami Center
13:27 27.8475 -81.5744 178° South 158 182 7,100 60 Climbing Miami Center
13:28 27.8058 -81.5797 186° South 158 182 7,100  Level Miami Center
13:29 27.7597 -81.5825 183° South 158 182 7,100  Level Miami Center
13:30 27.7181 -81.5833 181° South 158 182 7,100  Level Miami Center
13:31 27.6739 -81.5883 186° South 158 182 7,100  Level Miami Center
13:32 27.6300 -81.5936 186° South 158 182 7,100  Level Miami Center
13:33 27.5858 -81.5989 186° South 158 182 7,100 -60 Level Miami Center
13:34 27.5419 -81.6017 183° South 158 182 7,000 -60 Descending Miami Center
13:35 27.4981 -81.6047 184° South 158 182 7,000  Level Miami Center
13:36 27.4564 -81.6075 183° South 158 182 7,000  Level Miami Center
13:37 27.4122 -81.6103 183° South 158 182 7,000  Level Miami Center
13:38 27.3706 -81.6133 184° South 158 182 7,000  Level Miami Center
13:39 27.3264 -81.6186 186° South 158 182 7,000  Level Miami Center
13:40 27.2825 -81.6214 183° South 158 182 7,000  Level Miami Center
13:41 27.2386 -81.6242 183° South 158 182 7,000  Level Miami Center
13:42 27.1947 -81.6272 184° South 158 182 7,000  Level Miami Center
13:43 27.1508 -81.6322 186° South 158 182 7,000  Level Miami Center
13:44 27.1067 -81.6350 183° South 163 188 7,000  Level Miami Center
13:45 27.0650 -81.6381 184° South 163 188 7,000  Level Miami Center
13:46 27.0189 -81.6386 181° South 163 188 7,000  Level Miami Center
13:47 26.9756 -81.6275 167° South 158 182 7,000  Level Miami Center
13:48 26.9319 -81.6164 167° South 158 182 7,000  Level Miami Center
13:49 26.8906 -81.6053 167° South 158 182 7,000  Level Miami Center
13:51 26.8258 -81.6264 196° South  Level FlightAware Approximate
13:58 26.5644 -81.7000 180° South  Level FlightAware Approximate
13:59 26.5272 -81.7076 197° South  Level FlightAware Approximate
14:00 26.4902 -81.7179 186° South  Level FlightAware Approximate
14:01 26.4523 -81.7226 186° South  Level FlightAware Approximate
14:02 26.4143 -81.7274 186° South  Level FlightAware Approximate
14:03 26.3763 -81.7321 186° South  Level FlightAware Approximate
14:04 26.3384 -81.7369 186° South  Level FlightAware Approximate
14:05 26.3004 -81.7416 186° South  Level FlightAware Approximate
14:06 26.2624 -81.7464 186° South  Level FlightAware Approximate
14:07 26.2246 -81.7518 190° South  Level FlightAware Approximate
14:08 26.1870 -81.7593 190° South  Level FlightAware Approximate
14:09 26.1500 -81.7667 190° South  Level FlightAware Approximate
14:10 26.1524 -81.7756 190° South  Level Estimated